sensor_id;sensor_type;location;lat;lon;timestamp;P1;durP1;ratioP1;P2;durP2;ratioP2
13641;SDS011;6894;52.196;9.904;2023-06-04T00:00:15;1.70;;;1.20;;
13641;SDS011;6894;52.196;9.904;2023-06-04T00:02:42;1.60;;;1.23;;
13641;SDS011;6894;52.196;9.904;2023-06-04T00:05:09;2.47;;;1.23;;
13641;SDS011;6894;52.196;9.904;2023-06-04T00:07:37;1.53;;;1.03;;
13641;SDS011;6894;52.196;9.904;2023-06-04T00:10:04;1.90;;;0.93;;
13641;SDS011;6894;52.196;9.904;2023-06-04T00:12:31;2.93;;;1.20;;
13641;SDS011;6894;52.196;9.904;2023-06-04T00:14:58;1.90;;;0.93;;
13641;SDS011;6894;52.196;9.904;2023-06-04T00:17:25;2.40;;;1.20;;
13641;SDS011;6894;52.196;9.904;2023-06-04T00:19:52;1.90;;;1.10;;
13641;SDS011;6894;52.196;9.904;2023-06-04T00:22:18;1.97;;;1.17;;
13641;SDS011;6894;52.196;9.904;2023-06-04T00:24:47;1.00;;;0.90;;
13641;SDS011;6894;52.196;9.904;2023-06-04T00:27:13;1.30;;;1.00;;
13641;SDS011;6894;52.196;9.904;2023-06-04T00:29:40;1.50;;;1.13;;
13641;SDS011;6894;52.196;9.904;2023-06-04T00:32:07;2.00;;;1.20;;
13641;SDS011;6894;52.196;9.904;2023-06-04T00:34:34;1.20;;;1.00;;
13641;SDS011;6894;52.196;9.904;2023-06-04T00:37:01;1.50;;;1.00;;
13641;SDS011;6894;52.196;9.904;2023-06-04T00:39:28;1.73;;;1.23;;
13641;SDS011;6894;52.196;9.904;2023-06-04T00:41:56;1.20;;;0.90;;
13641;SDS011;6894;52.196;9.904;2023-06-04T00:44:23;1.17;;;1.00;;
13641;SDS011;6894;52.196;9.904;2023-06-04T00:46:50;2.67;;;0.90;;
13641;SDS011;6894;52.196;9.904;2023-06-04T00:49:18;2.33;;;1.20;;
13641;SDS011;6894;52.196;9.904;2023-06-04T00:51:45;2.40;;;1.07;;
13641;SDS011;6894;52.196;9.904;2023-06-04T00:54:12;2.17;;;1.00;;
13641;SDS011;6894;52.196;9.904;2023-06-04T00:56:39;1.20;;;1.00;;
13641;SDS011;6894;52.196;9.904;2023-06-04T00:59:08;3.67;;;1.10;;
13641;SDS011;6894;52.196;9.904;2023-06-04T01:01:37;1.27;;;0.90;;
13641;SDS011;6894;52.196;9.904;2023-06-04T01:04:12;1.80;;;1.07;;
13641;SDS011;6894;52.196;9.904;2023-06-04T01:06:43;0.97;;;0.80;;
13641;SDS011;6894;52.196;9.904;2023-06-04T01:09:11;1.40;;;1.00;;
13641;SDS011;6894;52.196;9.904;2023-06-04T01:11:40;1.43;;;1.10;;
13641;SDS011;6894;52.196;9.904;2023-06-04T01:14:09;1.57;;;1.00;;
13641;SDS011;6894;52.196;9.904;2023-06-04T01:16:43;2.30;;;1.00;;
13641;SDS011;6894;52.196;9.904;2023-06-04T01:19:18;0.93;;;0.80;;
13641;SDS011;6894;52.196;9.904;2023-06-04T01:21:58;3.60;;;1.07;;
13641;SDS011;6894;52.196;9.904;2023-06-04T01:24:29;1.20;;;1.10;;
13641;SDS011;6894;52.196;9.904;2023-06-04T01:27:01;2.03;;;0.90;;
13641;SDS011;6894;52.196;9.904;2023-06-04T01:29:30;1.73;;;1.07;;
13641;SDS011;6894;52.196;9.904;2023-06-04T01:31:57;1.47;;;0.97;;
13641;SDS011;6894;52.196;9.904;2023-06-04T01:34:25;2.43;;;1.10;;
13641;SDS011;6894;52.196;9.904;2023-06-04T01:36:51;1.73;;;1.30;;
13641;SDS011;6894;52.196;9.904;2023-06-04T01:39:18;2.10;;;1.20;;
13641;SDS011;6894;52.196;9.904;2023-06-04T01:41:45;1.47;;;1.00;;
13641;SDS011;6894;52.196;9.904;2023-06-04T01:44:11;1.23;;;0.97;;
13641;SDS011;6894;52.196;9.904;2023-06-04T01:46:40;1.80;;;1.30;;
13641;SDS011;6894;52.196;9.904;2023-06-04T01:49:06;1.93;;;1.30;;
13641;SDS011;6894;52.196;9.904;2023-06-04T01:51:33;1.67;;;1.37;;
13641;SDS011;6894;52.196;9.904;2023-06-04T01:54:00;4.37;;;1.47;;
13641;SDS011;6894;52.196;9.904;2023-06-04T01:56:27;1.97;;;1.23;;
13641;SDS011;6894;52.196;9.904;2023-06-04T01:58:54;1.10;;;1.00;;
13641;SDS011;6894;52.196;9.904;2023-06-04T02:01:21;1.60;;;1.20;;
13641;SDS011;6894;52.196;9.904;2023-06-04T02:03:49;1.73;;;1.27;;
13641;SDS011;6894;52.196;9.904;2023-06-04T02:06:16;1.63;;;1.40;;
13641;SDS011;6894;52.196;9.904;2023-06-04T02:08:42;1.73;;;1.00;;
13641;SDS011;6894;52.196;9.904;2023-06-04T02:11:09;0.97;;;0.87;;
13641;SDS011;6894;52.196;9.904;2023-06-04T02:13:36;1.90;;;1.10;;
13641;SDS011;6894;52.196;9.904;2023-06-04T02:16:03;1.17;;;1.00;;
13641;SDS011;6894;52.196;9.904;2023-06-04T02:18:30;1.20;;;1.10;;
13641;SDS011;6894;52.196;9.904;2023-06-04T02:20:58;1.13;;;1.03;;
13641;SDS011;6894;52.196;9.904;2023-06-04T02:23:26;1.43;;;1.00;;
13641;SDS011;6894;52.196;9.904;2023-06-04T02:25:53;1.83;;;1.40;;
13641;SDS011;6894;52.196;9.904;2023-06-04T02:28:20;1.93;;;1.30;;
13641;SDS011;6894;52.196;9.904;2023-06-04T02:30:46;1.67;;;1.13;;
13641;SDS011;6894;52.196;9.904;2023-06-04T02:33:13;1.83;;;1.50;;
13641;SDS011;6894;52.196;9.904;2023-06-04T02:35:40;2.03;;;1.00;;
13641;SDS011;6894;52.196;9.904;2023-06-04T02:38:09;2.77;;;1.30;;
13641;SDS011;6894;52.196;9.904;2023-06-04T02:40:36;2.70;;;1.50;;
13641;SDS011;6894;52.196;9.904;2023-06-04T02:43:02;1.90;;;1.40;;
13641;SDS011;6894;52.196;9.904;2023-06-04T02:45:29;2.17;;;1.47;;
13641;SDS011;6894;52.196;9.904;2023-06-04T02:47:56;2.27;;;1.50;;
13641;SDS011;6894;52.196;9.904;2023-06-04T02:50:23;2.23;;;1.47;;
13641;SDS011;6894;52.196;9.904;2023-06-04T02:52:50;1.60;;;1.20;;
13641;SDS011;6894;52.196;9.904;2023-06-04T02:55:18;1.47;;;1.10;;
13641;SDS011;6894;52.196;9.904;2023-06-04T02:57:45;1.30;;;1.20;;
13641;SDS011;6894;52.196;9.904;2023-06-04T03:00:12;1.93;;;1.43;;
13641;SDS011;6894;52.196;9.904;2023-06-04T03:02:41;1.30;;;1.20;;
13641;SDS011;6894;52.196;9.904;2023-06-04T03:05:08;3.00;;;1.40;;
13641;SDS011;6894;52.196;9.904;2023-06-04T03:07:38;1.47;;;1.10;;
13641;SDS011;6894;52.196;9.904;2023-06-04T03:10:06;2.17;;;1.50;;
13641;SDS011;6894;52.196;9.904;2023-06-04T03:12:35;1.83;;;1.10;;
13641;SDS011;6894;52.196;9.904;2023-06-04T03:15:02;1.73;;;1.33;;
13641;SDS011;6894;52.196;9.904;2023-06-04T03:17:29;2.10;;;1.37;;
13641;SDS011;6894;52.196;9.904;2023-06-04T03:19:57;2.53;;;1.47;;
13641;SDS011;6894;52.196;9.904;2023-06-04T03:22:24;1.57;;;1.47;;
13641;SDS011;6894;52.196;9.904;2023-06-04T03:24:51;3.43;;;1.40;;
13641;SDS011;6894;52.196;9.904;2023-06-04T03:27:18;1.57;;;1.20;;
13641;SDS011;6894;52.196;9.904;2023-06-04T03:29:46;2.60;;;1.50;;
13641;SDS011;6894;52.196;9.904;2023-06-04T03:32:13;2.27;;;1.40;;
13641;SDS011;6894;52.196;9.904;2023-06-04T03:34:41;2.27;;;1.80;;
13641;SDS011;6894;52.196;9.904;2023-06-04T03:37:08;2.10;;;1.47;;
13641;SDS011;6894;52.196;9.904;2023-06-04T03:39:35;2.30;;;1.40;;
13641;SDS011;6894;52.196;9.904;2023-06-04T03:42:01;3.30;;;1.53;;
13641;SDS011;6894;52.196;9.904;2023-06-04T03:44:28;3.30;;;1.93;;
13641;SDS011;6894;52.196;9.904;2023-06-04T03:46:56;1.43;;;1.30;;
13641;SDS011;6894;52.196;9.904;2023-06-04T03:49:23;2.37;;;1.57;;
13641;SDS011;6894;52.196;9.904;2023-06-04T03:51:50;1.33;;;1.20;;
13641;SDS011;6894;52.196;9.904;2023-06-04T03:54:17;1.67;;;1.50;;
13641;SDS011;6894;52.196;9.904;2023-06-04T03:56:44;3.40;;;1.20;;
13641;SDS011;6894;52.196;9.904;2023-06-04T03:59:11;1.60;;;1.40;;
13641;SDS011;6894;52.196;9.904;2023-06-04T04:01:38;3.20;;;1.50;;
13641;SDS011;6894;52.196;9.904;2023-06-04T04:04:06;2.17;;;1.50;;
13641;SDS011;6894;52.196;9.904;2023-06-04T04:06:32;1.60;;;1.50;;
13641;SDS011;6894;52.196;9.904;2023-06-04T04:09:00;2.77;;;1.50;;
13641;SDS011;6894;52.196;9.904;2023-06-04T04:11:28;2.37;;;1.33;;
13641;SDS011;6894;52.196;9.904;2023-06-04T04:13:56;1.80;;;1.57;;
13641;SDS011;6894;52.196;9.904;2023-06-04T04:16:23;1.83;;;1.60;;
13641;SDS011;6894;52.196;9.904;2023-06-04T04:18:49;3.10;;;1.53;;
13641;SDS011;6894;52.196;9.904;2023-06-04T04:21:17;2.10;;;1.40;;
13641;SDS011;6894;52.196;9.904;2023-06-04T04:23:46;3.30;;;1.60;;
13641;SDS011;6894;52.196;9.904;2023-06-04T04:26:12;2.67;;;1.93;;
13641;SDS011;6894;52.196;9.904;2023-06-04T04:28:41;1.70;;;1.30;;
13641;SDS011;6894;52.196;9.904;2023-06-04T04:31:08;2.10;;;1.70;;
13641;SDS011;6894;52.196;9.904;2023-06-04T04:33:35;1.90;;;1.50;;
13641;SDS011;6894;52.196;9.904;2023-06-04T04:36:04;2.57;;;1.77;;
13641;SDS011;6894;52.196;9.904;2023-06-04T04:38:35;2.23;;;1.50;;
13641;SDS011;6894;52.196;9.904;2023-06-04T04:41:03;2.57;;;1.93;;
13641;SDS011;6894;52.196;9.904;2023-06-04T04:43:32;3.93;;;1.70;;
13641;SDS011;6894;52.196;9.904;2023-06-04T04:46:00;3.23;;;1.50;;
13641;SDS011;6894;52.196;9.904;2023-06-04T04:48:27;4.00;;;1.67;;
13641;SDS011;6894;52.196;9.904;2023-06-04T04:50:54;1.87;;;1.30;;
13641;SDS011;6894;52.196;9.904;2023-06-04T04:53:21;2.97;;;1.50;;
13641;SDS011;6894;52.196;9.904;2023-06-04T04:55:49;2.13;;;1.70;;
13641;SDS011;6894;52.196;9.904;2023-06-04T04:58:16;2.67;;;1.77;;
13641;SDS011;6894;52.196;9.904;2023-06-04T05:00:43;2.13;;;1.53;;
13641;SDS011;6894;52.196;9.904;2023-06-04T05:03:10;2.67;;;1.87;;
13641;SDS011;6894;52.196;9.904;2023-06-04T05:05:37;1.97;;;1.70;;
13641;SDS011;6894;52.196;9.904;2023-06-04T05:08:04;2.63;;;1.67;;
13641;SDS011;6894;52.196;9.904;2023-06-04T05:10:31;3.33;;;1.70;;
13641;SDS011;6894;52.196;9.904;2023-06-04T05:13:02;2.93;;;2.10;;
13641;SDS011;6894;52.196;9.904;2023-06-04T05:15:29;2.57;;;1.40;;
13641;SDS011;6894;52.196;9.904;2023-06-04T05:17:56;2.27;;;1.87;;
13641;SDS011;6894;52.196;9.904;2023-06-04T05:20:25;2.30;;;1.70;;
13641;SDS011;6894;52.196;9.904;2023-06-04T05:22:52;2.77;;;1.80;;
13641;SDS011;6894;52.196;9.904;2023-06-04T05:25:20;1.97;;;1.60;;
13641;SDS011;6894;52.196;9.904;2023-06-04T05:27:47;1.97;;;1.40;;
13641;SDS011;6894;52.196;9.904;2023-06-04T05:30:15;1.60;;;1.50;;
13641;SDS011;6894;52.196;9.904;2023-06-04T05:32:42;4.20;;;1.73;;
13641;SDS011;6894;52.196;9.904;2023-06-04T05:35:09;2.17;;;1.30;;
13641;SDS011;6894;52.196;9.904;2023-06-04T05:37:37;3.20;;;1.40;;
13641;SDS011;6894;52.196;9.904;2023-06-04T05:40:06;3.37;;;2.23;;
13641;SDS011;6894;52.196;9.904;2023-06-04T05:42:34;3.17;;;1.40;;
13641;SDS011;6894;52.196;9.904;2023-06-04T05:45:01;2.70;;;1.70;;
13641;SDS011;6894;52.196;9.904;2023-06-04T05:47:29;2.80;;;1.90;;
13641;SDS011;6894;52.196;9.904;2023-06-04T05:49:56;2.23;;;1.50;;
13641;SDS011;6894;52.196;9.904;2023-06-04T05:52:23;2.27;;;1.70;;
13641;SDS011;6894;52.196;9.904;2023-06-04T05:54:50;4.23;;;1.77;;
13641;SDS011;6894;52.196;9.904;2023-06-04T05:57:17;2.57;;;1.87;;
13641;SDS011;6894;52.196;9.904;2023-06-04T05:59:43;1.67;;;1.43;;
13641;SDS011;6894;52.196;9.904;2023-06-04T06:02:11;2.90;;;1.93;;
13641;SDS011;6894;52.196;9.904;2023-06-04T06:04:39;3.63;;;2.00;;
13641;SDS011;6894;52.196;9.904;2023-06-04T06:07:06;3.17;;;1.47;;
13641;SDS011;6894;52.196;9.904;2023-06-04T06:09:33;2.80;;;1.67;;
13641;SDS011;6894;52.196;9.904;2023-06-04T06:12:00;2.50;;;1.70;;
13641;SDS011;6894;52.196;9.904;2023-06-04T06:14:27;2.30;;;1.70;;
13641;SDS011;6894;52.196;9.904;2023-06-04T06:16:54;3.73;;;1.57;;
13641;SDS011;6894;52.196;9.904;2023-06-04T06:19:21;8.37;;;2.03;;
13641;SDS011;6894;52.196;9.904;2023-06-04T06:21:49;2.50;;;1.40;;
13641;SDS011;6894;52.196;9.904;2023-06-04T06:24:16;2.40;;;1.47;;
13641;SDS011;6894;52.196;9.904;2023-06-04T06:26:43;2.33;;;1.60;;
13641;SDS011;6894;52.196;9.904;2023-06-04T06:29:09;2.07;;;1.60;;
13641;SDS011;6894;52.196;9.904;2023-06-04T06:31:36;3.40;;;1.60;;
13641;SDS011;6894;52.196;9.904;2023-06-04T06:34:03;1.93;;;1.50;;
13641;SDS011;6894;52.196;9.904;2023-06-04T06:36:30;1.87;;;1.50;;
13641;SDS011;6894;52.196;9.904;2023-06-04T06:38:59;3.47;;;1.73;;
13641;SDS011;6894;52.196;9.904;2023-06-04T06:41:26;3.00;;;1.40;;
13641;SDS011;6894;52.196;9.904;2023-06-04T06:43:52;3.53;;;1.57;;
13641;SDS011;6894;52.196;9.904;2023-06-04T06:46:20;3.23;;;1.43;;
13641;SDS011;6894;52.196;9.904;2023-06-04T06:48:46;5.47;;;1.50;;
13641;SDS011;6894;52.196;9.904;2023-06-04T06:51:14;4.00;;;1.73;;
13641;SDS011;6894;52.196;9.904;2023-06-04T06:53:41;4.40;;;1.60;;
13641;SDS011;6894;52.196;9.904;2023-06-04T06:56:10;1.70;;;1.60;;
13641;SDS011;6894;52.196;9.904;2023-06-04T06:58:37;1.63;;;1.20;;
13641;SDS011;6894;52.196;9.904;2023-06-04T07:01:03;2.20;;;1.60;;
13641;SDS011;6894;52.196;9.904;2023-06-04T07:03:31;1.27;;;0.93;;
13641;SDS011;6894;52.196;9.904;2023-06-04T07:05:58;2.20;;;1.50;;
13641;SDS011;6894;52.196;9.904;2023-06-04T07:08:24;2.30;;;1.20;;
13641;SDS011;6894;52.196;9.904;2023-06-04T07:10:51;3.83;;;1.27;;
13641;SDS011;6894;52.196;9.904;2023-06-04T07:13:19;1.40;;;1.30;;
13641;SDS011;6894;52.196;9.904;2023-06-04T07:15:46;3.80;;;1.73;;
13641;SDS011;6894;52.196;9.904;2023-06-04T07:18:13;2.30;;;1.30;;
13641;SDS011;6894;52.196;9.904;2023-06-04T07:20:39;2.37;;;1.20;;
13641;SDS011;6894;52.196;9.904;2023-06-04T07:23:06;1.30;;;1.20;;
13641;SDS011;6894;52.196;9.904;2023-06-04T07:25:33;2.60;;;1.40;;
13641;SDS011;6894;52.196;9.904;2023-06-04T07:28:00;2.03;;;1.30;;
13641;SDS011;6894;52.196;9.904;2023-06-04T07:30:30;1.80;;;1.20;;
13641;SDS011;6894;52.196;9.904;2023-06-04T07:32:57;3.10;;;1.30;;
13641;SDS011;6894;52.196;9.904;2023-06-04T07:35:24;2.53;;;1.70;;
13641;SDS011;6894;52.196;9.904;2023-06-04T07:37:51;6.90;;;2.20;;
13641;SDS011;6894;52.196;9.904;2023-06-04T07:40:18;4.23;;;1.90;;
13641;SDS011;6894;52.196;9.904;2023-06-04T07:42:44;4.60;;;1.53;;
13641;SDS011;6894;52.196;9.904;2023-06-04T07:45:12;12.50;;;2.13;;
13641;SDS011;6894;52.196;9.904;2023-06-04T07:47:40;3.77;;;2.00;;
13641;SDS011;6894;52.196;9.904;2023-06-04T07:50:07;4.80;;;1.60;;
13641;SDS011;6894;52.196;9.904;2023-06-04T07:52:34;2.23;;;1.63;;
13641;SDS011;6894;52.196;9.904;2023-06-04T07:55:02;3.13;;;1.53;;
13641;SDS011;6894;52.196;9.904;2023-06-04T07:57:30;2.60;;;1.43;;
13641;SDS011;6894;52.196;9.904;2023-06-04T07:59:57;2.60;;;1.57;;
13641;SDS011;6894;52.196;9.904;2023-06-04T08:02:24;3.57;;;1.50;;
13641;SDS011;6894;52.196;9.904;2023-06-04T08:04:52;2.20;;;1.70;;
13641;SDS011;6894;52.196;9.904;2023-06-04T08:07:19;2.27;;;1.60;;
13641;SDS011;6894;52.196;9.904;2023-06-04T08:09:46;2.27;;;1.40;;
13641;SDS011;6894;52.196;9.904;2023-06-04T08:12:13;3.83;;;1.27;;
13641;SDS011;6894;52.196;9.904;2023-06-04T08:14:41;2.87;;;1.60;;
13641;SDS011;6894;52.196;9.904;2023-06-04T08:17:07;2.40;;;1.50;;
13641;SDS011;6894;52.196;9.904;2023-06-04T08:19:34;2.40;;;1.50;;
13641;SDS011;6894;52.196;9.904;2023-06-04T08:22:03;1.37;;;1.27;;
13641;SDS011;6894;52.196;9.904;2023-06-04T08:24:31;2.00;;;1.40;;
13641;SDS011;6894;52.196;9.904;2023-06-04T08:26:57;3.23;;;1.40;;
13641;SDS011;6894;52.196;9.904;2023-06-04T08:29:24;2.37;;;1.47;;
13641;SDS011;6894;52.196;9.904;2023-06-04T08:31:51;2.97;;;1.40;;
13641;SDS011;6894;52.196;9.904;2023-06-04T08:34:18;3.13;;;1.47;;
13641;SDS011;6894;52.196;9.904;2023-06-04T08:36:45;4.13;;;1.77;;
13641;SDS011;6894;52.196;9.904;2023-06-04T08:39:14;1.73;;;1.37;;
13641;SDS011;6894;52.196;9.904;2023-06-04T08:41:42;2.00;;;1.27;;
13641;SDS011;6894;52.196;9.904;2023-06-04T08:44:10;2.03;;;1.30;;
13641;SDS011;6894;52.196;9.904;2023-06-04T08:46:37;1.73;;;1.10;;
13641;SDS011;6894;52.196;9.904;2023-06-04T08:49:05;1.80;;;1.10;;
13641;SDS011;6894;52.196;9.904;2023-06-04T08:51:34;1.97;;;1.13;;
13641;SDS011;6894;52.196;9.904;2023-06-04T08:54:03;1.80;;;1.50;;
13641;SDS011;6894;52.196;9.904;2023-06-04T08:56:34;1.57;;;1.30;;
13641;SDS011;6894;52.196;9.904;2023-06-04T08:59:01;3.17;;;1.27;;
13641;SDS011;6894;52.196;9.904;2023-06-04T09:01:30;1.90;;;1.00;;
13641;SDS011;6894;52.196;9.904;2023-06-04T09:03:58;1.37;;;1.00;;
13641;SDS011;6894;52.196;9.904;2023-06-04T09:06:25;1.20;;;1.10;;
13641;SDS011;6894;52.196;9.904;2023-06-04T09:08:53;1.37;;;1.23;;
13641;SDS011;6894;52.196;9.904;2023-06-04T09:11:23;1.93;;;1.20;;
13641;SDS011;6894;52.196;9.904;2023-06-04T09:13:54;2.43;;;1.07;;
13641;SDS011;6894;52.196;9.904;2023-06-04T09:16:24;2.77;;;1.27;;
13641;SDS011;6894;52.196;9.904;2023-06-04T09:18:51;1.60;;;1.03;;
13641;SDS011;6894;52.196;9.904;2023-06-04T09:21:19;1.48;;;1.00;;
13641;SDS011;6894;52.196;9.904;2023-06-04T09:23:46;2.03;;;1.00;;
13641;SDS011;6894;52.196;9.904;2023-06-04T09:26:13;2.80;;;1.10;;
13641;SDS011;6894;52.196;9.904;2023-06-04T09:28:40;3.43;;;1.47;;
13641;SDS011;6894;52.196;9.904;2023-06-04T09:31:09;1.73;;;1.17;;
13641;SDS011;6894;52.196;9.904;2023-06-04T09:33:43;2.40;;;1.10;;
13641;SDS011;6894;52.196;9.904;2023-06-04T09:36:10;1.53;;;0.90;;
13641;SDS011;6894;52.196;9.904;2023-06-04T09:38:38;1.60;;;0.90;;
13641;SDS011;6894;52.196;9.904;2023-06-04T09:41:10;3.73;;;1.33;;
13641;SDS011;6894;52.196;9.904;2023-06-04T09:43:37;5.90;;;1.57;;
13641;SDS011;6894;52.196;9.904;2023-06-04T09:46:12;3.80;;;1.00;;
13641;SDS011;6894;52.196;9.904;2023-06-04T09:48:40;4.57;;;1.13;;
13641;SDS011;6894;52.196;9.904;2023-06-04T09:51:08;2.17;;;1.30;;
13641;SDS011;6894;52.196;9.904;2023-06-04T09:53:35;3.20;;;1.00;;
13641;SDS011;6894;52.196;9.904;2023-06-04T09:56:03;2.10;;;1.07;;
13641;SDS011;6894;52.196;9.904;2023-06-04T09:58:31;1.27;;;0.93;;
13641;SDS011;6894;52.196;9.904;2023-06-04T10:00:59;1.90;;;1.00;;
13641;SDS011;6894;52.196;9.904;2023-06-04T10:03:29;1.60;;;1.00;;
13641;SDS011;6894;52.196;9.904;2023-06-04T10:05:57;2.73;;;1.00;;
13641;SDS011;6894;52.196;9.904;2023-06-04T10:08:26;1.70;;;1.13;;
13641;SDS011;6894;52.196;9.904;2023-06-04T10:10:56;3.57;;;1.13;;
13641;SDS011;6894;52.196;9.904;2023-06-04T10:13:26;2.10;;;1.00;;
13641;SDS011;6894;52.196;9.904;2023-06-04T10:15:56;0.97;;;0.87;;
13641;SDS011;6894;52.196;9.904;2023-06-04T10:18:24;1.47;;;1.07;;
13641;SDS011;6894;52.196;9.904;2023-06-04T10:20:55;1.60;;;1.00;;
13641;SDS011;6894;52.196;9.904;2023-06-04T10:23:22;1.63;;;0.97;;
13641;SDS011;6894;52.196;9.904;2023-06-04T10:25:50;1.13;;;1.00;;
13641;SDS011;6894;52.196;9.904;2023-06-04T10:28:18;1.57;;;0.83;;
13641;SDS011;6894;52.196;9.904;2023-06-04T10:30:46;1.80;;;1.13;;
13641;SDS011;6894;52.196;9.904;2023-06-04T10:33:15;1.83;;;1.07;;
13641;SDS011;6894;52.196;9.904;2023-06-04T10:35:43;1.13;;;0.90;;
13641;SDS011;6894;52.196;9.904;2023-06-04T10:38:11;3.73;;;1.30;;
13641;SDS011;6894;52.196;9.904;2023-06-04T10:40:39;2.20;;;0.90;;
13641;SDS011;6894;52.196;9.904;2023-06-04T10:43:07;2.27;;;1.07;;
13641;SDS011;6894;52.196;9.904;2023-06-04T10:45:35;2.95;;;1.00;;
13641;SDS011;6894;52.196;9.904;2023-06-04T10:48:02;2.10;;;0.90;;
13641;SDS011;6894;52.196;9.904;2023-06-04T10:50:31;1.67;;;0.70;;
13641;SDS011;6894;52.196;9.904;2023-06-04T10:52:58;1.57;;;1.07;;
13641;SDS011;6894;52.196;9.904;2023-06-04T10:55:29;2.33;;;0.90;;
13641;SDS011;6894;52.196;9.904;2023-06-04T10:57:56;1.50;;;0.95;;
13641;SDS011;6894;52.196;9.904;2023-06-04T11:00:34;1.10;;;1.00;;
13641;SDS011;6894;52.196;9.904;2023-06-04T11:03:01;2.10;;;1.03;;
13641;SDS011;6894;52.196;9.904;2023-06-04T11:05:33;2.10;;;1.00;;
13641;SDS011;6894;52.196;9.904;2023-06-04T11:08:01;1.33;;;0.80;;
13641;SDS011;6894;52.196;9.904;2023-06-04T11:10:32;2.13;;;1.00;;
13641;SDS011;6894;52.196;9.904;2023-06-04T11:13:02;1.27;;;0.97;;
13641;SDS011;6894;52.196;9.904;2023-06-04T11:15:39;4.95;;;1.50;;
13641;SDS011;6894;52.196;9.904;2023-06-04T11:18:07;1.05;;;0.80;;
13641;SDS011;6894;52.196;9.904;2023-06-04T11:20:34;2.08;;;0.98;;
13641;SDS011;6894;52.196;9.904;2023-06-04T11:23:00;1.58;;;1.00;;
13641;SDS011;6894;52.196;9.904;2023-06-04T11:25:28;1.95;;;0.85;;
13641;SDS011;6894;52.196;9.904;2023-06-04T11:27:59;2.58;;;1.10;;
13641;SDS011;6894;52.196;9.904;2023-06-04T11:30:27;3.47;;;1.33;;
13641;SDS011;6894;52.196;9.904;2023-06-04T11:33:01;2.70;;;1.02;;
13641;SDS011;6894;52.196;9.904;2023-06-04T11:35:28;2.05;;;1.00;;
13641;SDS011;6894;52.196;9.904;2023-06-04T11:37:55;2.13;;;1.00;;
13641;SDS011;6894;52.196;9.904;2023-06-04T11:40:25;1.25;;;1.00;;
13641;SDS011;6894;52.196;9.904;2023-06-04T11:42:52;1.60;;;0.95;;
13641;SDS011;6894;52.196;9.904;2023-06-04T11:45:22;1.88;;;1.00;;
13641;SDS011;6894;52.196;9.904;2023-06-04T11:47:51;1.00;;;0.90;;
13641;SDS011;6894;52.196;9.904;2023-06-04T11:50:20;1.27;;;0.90;;
13641;SDS011;6894;52.196;9.904;2023-06-04T11:52:47;1.63;;;1.00;;
13641;SDS011;6894;52.196;9.904;2023-06-04T11:55:15;1.88;;;0.90;;
13641;SDS011;6894;52.196;9.904;2023-06-04T11:57:45;1.70;;;1.33;;
13641;SDS011;6894;52.196;9.904;2023-06-04T12:00:13;0.80;;;0.80;;
13641;SDS011;6894;52.196;9.904;2023-06-04T12:02:49;1.10;;;0.88;;
13641;SDS011;6894;52.196;9.904;2023-06-04T12:05:17;1.23;;;0.80;;
13641;SDS011;6894;52.196;9.904;2023-06-04T12:07:44;1.58;;;0.90;;
13641;SDS011;6894;52.196;9.904;2023-06-04T12:10:12;1.70;;;1.13;;
13641;SDS011;6894;52.196;9.904;2023-06-04T12:12:39;3.13;;;1.10;;
13641;SDS011;6894;52.196;9.904;2023-06-04T12:15:07;1.95;;;1.08;;
13641;SDS011;6894;52.196;9.904;2023-06-04T12:17:35;1.35;;;1.10;;
13641;SDS011;6894;52.196;9.904;2023-06-04T12:20:03;1.65;;;0.95;;
13641;SDS011;6894;52.196;9.904;2023-06-04T12:22:31;2.17;;;0.85;;
13641;SDS011;6894;52.196;9.904;2023-06-04T12:24:57;1.33;;;0.90;;
13641;SDS011;6894;52.196;9.904;2023-06-04T12:27:27;1.88;;;1.00;;
13641;SDS011;6894;52.196;9.904;2023-06-04T12:29:55;2.20;;;1.02;;
13641;SDS011;6894;52.196;9.904;2023-06-04T12:32:25;2.88;;;1.10;;
13641;SDS011;6894;52.196;9.904;2023-06-04T12:34:53;1.23;;;0.90;;
13641;SDS011;6894;52.196;9.904;2023-06-04T12:37:21;3.85;;;1.10;;
13641;SDS011;6894;52.196;9.904;2023-06-04T12:39:50;2.05;;;1.08;;
13641;SDS011;6894;52.196;9.904;2023-06-04T12:42:17;1.10;;;0.80;;
13641;SDS011;6894;52.196;9.904;2023-06-04T12:44:46;3.95;;;1.00;;
13641;SDS011;6894;52.196;9.904;2023-06-04T12:47:13;1.85;;;1.00;;
13641;SDS011;6894;52.196;9.904;2023-06-04T12:49:41;1.45;;;1.10;;
13641;SDS011;6894;52.196;9.904;2023-06-04T12:52:09;1.85;;;1.00;;
13641;SDS011;6894;52.196;9.904;2023-06-04T12:54:39;2.28;;;1.10;;
13641;SDS011;6894;52.196;9.904;2023-06-04T12:57:06;1.63;;;0.88;;
13641;SDS011;6894;52.196;9.904;2023-06-04T12:59:32;1.60;;;0.80;;
13641;SDS011;6894;52.196;9.904;2023-06-04T13:01:59;1.45;;;0.90;;
13641;SDS011;6894;52.196;9.904;2023-06-04T13:04:26;2.60;;;1.10;;
13641;SDS011;6894;52.196;9.904;2023-06-04T13:06:52;3.80;;;1.00;;
13641;SDS011;6894;52.196;9.904;2023-06-04T13:09:23;2.83;;;1.02;;
13641;SDS011;6894;52.196;9.904;2023-06-04T13:11:54;2.17;;;1.25;;
13641;SDS011;6894;52.196;9.904;2023-06-04T13:14:21;1.52;;;0.90;;
13641;SDS011;6894;52.196;9.904;2023-06-04T13:16:47;2.20;;;0.93;;
13641;SDS011;6894;52.196;9.904;2023-06-04T13:19:16;2.88;;;1.08;;
13641;SDS011;6894;52.196;9.904;2023-06-04T13:21:44;1.98;;;1.10;;
13641;SDS011;6894;52.196;9.904;2023-06-04T13:24:11;1.17;;;0.90;;
13641;SDS011;6894;52.196;9.904;2023-06-04T13:26:37;1.20;;;0.82;;
13641;SDS011;6894;52.196;9.904;2023-06-04T13:29:08;1.85;;;1.08;;
13641;SDS011;6894;52.196;9.904;2023-06-04T13:31:35;0.85;;;0.77;;
13641;SDS011;6894;52.196;9.904;2023-06-04T13:34:03;1.23;;;0.93;;
13641;SDS011;6894;52.196;9.904;2023-06-04T13:36:30;2.70;;;1.10;;
13641;SDS011;6894;52.196;9.904;2023-06-04T13:38:57;1.85;;;0.95;;
13641;SDS011;6894;52.196;9.904;2023-06-04T13:41:23;1.00;;;0.90;;
13641;SDS011;6894;52.196;9.904;2023-06-04T13:43:51;1.25;;;0.98;;
13641;SDS011;6894;52.196;9.904;2023-06-04T13:46:19;3.10;;;1.35;;
13641;SDS011;6894;52.196;9.904;2023-06-04T13:48:46;1.15;;;0.93;;
13641;SDS011;6894;52.196;9.904;2023-06-04T13:51:13;2.47;;;1.25;;
13641;SDS011;6894;52.196;9.904;2023-06-04T13:53:39;1.60;;;1.00;;
13641;SDS011;6894;52.196;9.904;2023-06-04T13:56:06;3.20;;;1.00;;
13641;SDS011;6894;52.196;9.904;2023-06-04T13:58:33;1.20;;;1.08;;
13641;SDS011;6894;52.196;9.904;2023-06-04T14:01:00;1.77;;;0.80;;
13641;SDS011;6894;52.196;9.904;2023-06-04T14:03:28;2.08;;;0.98;;
13641;SDS011;6894;52.196;9.904;2023-06-04T14:05:55;1.52;;;0.98;;
13641;SDS011;6894;52.196;9.904;2023-06-04T14:08:22;1.60;;;1.35;;
13641;SDS011;6894;52.196;9.904;2023-06-04T14:10:48;1.08;;;0.60;;
13641;SDS011;6894;52.196;9.904;2023-06-04T14:13:16;3.13;;;1.10;;
13641;SDS011;6894;52.196;9.904;2023-06-04T14:15:45;2.70;;;1.10;;
13641;SDS011;6894;52.196;9.904;2023-06-04T14:18:16;1.83;;;1.00;;
13641;SDS011;6894;52.196;9.904;2023-06-04T14:20:44;1.10;;;0.70;;
13641;SDS011;6894;52.196;9.904;2023-06-04T14:23:12;3.20;;;0.90;;
13641;SDS011;6894;52.196;9.904;2023-06-04T14:25:38;2.03;;;1.00;;
13641;SDS011;6894;52.196;9.904;2023-06-04T14:28:05;1.02;;;0.93;;
13641;SDS011;6894;52.196;9.904;2023-06-04T14:30:32;1.08;;;0.80;;
13641;SDS011;6894;52.196;9.904;2023-06-04T14:33:00;2.30;;;0.85;;
13641;SDS011;6894;52.196;9.904;2023-06-04T14:35:26;0.98;;;0.82;;
13641;SDS011;6894;52.196;9.904;2023-06-04T14:37:54;1.77;;;1.13;;
13641;SDS011;6894;52.196;9.904;2023-06-04T14:40:21;1.55;;;0.98;;
13641;SDS011;6894;52.196;9.904;2023-06-04T14:42:48;1.30;;;1.10;;
13641;SDS011;6894;52.196;9.904;2023-06-04T14:45:15;1.90;;;1.10;;
13641;SDS011;6894;52.196;9.904;2023-06-04T14:47:41;2.00;;;1.08;;
13641;SDS011;6894;52.196;9.904;2023-06-04T14:50:08;3.47;;;1.10;;
13641;SDS011;6894;52.196;9.904;2023-06-04T14:52:36;0.93;;;0.90;;
13641;SDS011;6894;52.196;9.904;2023-06-04T14:55:04;2.25;;;0.95;;
13641;SDS011;6894;52.196;9.904;2023-06-04T14:57:31;2.05;;;1.20;;
13641;SDS011;6894;52.196;9.904;2023-06-04T14:59:58;1.17;;;1.08;;
13641;SDS011;6894;52.196;9.904;2023-06-04T15:02:25;1.33;;;0.85;;